Accueil
METAR-TAF:

METAR-TAF

Aéroports :

Mount Pleasant Municipal Airport

Mount Pleasant, Michigan, États-Unis

latitude: 43-37N, longitude: 084-44W, altitude: 230 m

Observation

Le bulletin a été fait il y a 28 minutes, à 09:15 UTC
Vent 4 kt de sud-est
Température 13°C
Humidité 100%
Pression 1008 hPa
Visibilité: 11.3 km
Nuages fragmentés à une hauteur de 2100 ft
Ciel couvert à une hauteur de 3300 ft
pluie faible

METAR: KMOP 210915Z AUTO 13004KT 7SM -RA BKN021 OVC033 13/13 A2978 RMK AO2 T01330133 P0002

Heure: 05:43 (09:43 UTC)


TAF: absent

Observations et prévisions météorologiques de plus de 4000 aéroports (messages METAR et TAF).

Les stations disponibles sont représentées par des disques jaunes et rouges sur la carte.

Passer la souris dessus pour voir le nom de la station.

Cliquer dessus pour voir les observations et prévisions météorologiques.

Pour changer de carte: cliquez sur les boutons verts avec une croix noire pour zoomer, sur le bouton vert avec un tiret pour effectuer un zoom arrière, ou sur les flèches vertes pour les cartes adjacentes.


METAR-TAF: